sensor_id;sensor_type;location;lat;lon;timestamp;pressure;altitude;pressure_sealevel;temperature;humidity
67545;BME280;54380;47.770;11.150;2023-02-11T09:11:07;96569.59;;;2.37;56.59
67545;BME280;54380;47.770;11.150;2023-02-11T09:16:43;96558.84;;;2.99;55.68
67545;BME280;54380;47.770;11.150;2023-02-11T09:19:12;96553.47;;;3.25;54.85
67545;BME280;54380;47.770;11.150;2023-02-11T09:21:48;96550.84;;;3.41;54.21
67545;BME280;54380;47.770;11.150;2023-02-11T09:24:23;96543.50;;;3.53;54.01
67545;BME280;54380;47.770;11.150;2023-02-11T09:26:54;96538.41;;;3.76;53.32
67545;BME280;54380;47.770;11.150;2023-02-11T09:29:21;96537.22;;;3.95;52.94
67545;BME280;54380;47.770;11.150;2023-02-11T09:31:48;96540.44;;;4.05;52.64
67545;BME280;54380;47.770;11.150;2023-02-11T09:34:23;96547.09;;;4.16;52.78
67545;BME280;54380;47.770;11.150;2023-02-11T09:39:38;96564.06;;;4.28;52.10
67545;BME280;54380;47.770;11.150;2023-02-11T09:42:29;96551.47;;;4.32;50.57
67545;BME280;54380;47.770;11.150;2023-02-11T09:50:57;96536.84;;;4.06;48.49
67545;BME280;54380;47.770;11.150;2023-02-11T09:53:27;96531.97;;;4.03;49.53
67545;BME280;54380;47.770;11.150;2023-02-11T09:55:56;96530.63;;;4.07;49.90
67545;BME280;54380;47.770;11.150;2023-02-11T09:58:28;96536.38;;;4.11;49.67
67545;BME280;54380;47.770;11.150;2023-02-11T10:01:01;96527.03;;;4.16;50.17
67545;BME280;54380;47.770;11.150;2023-02-11T10:03:41;96524.06;;;4.20;48.31
67545;BME280;54380;47.770;11.150;2023-02-11T10:06:35;96520.00;;;4.17;46.97
67545;BME280;54380;47.770;11.150;2023-02-11T10:09:15;96527.19;;;4.15;47.33
67545;BME280;54380;47.770;11.150;2023-02-11T10:11:52;96524.22;;;4.18;47.46
67545;BME280;54380;47.770;11.150;2023-02-11T10:14:35;96539.06;;;4.26;46.98
67545;BME280;54380;47.770;11.150;2023-02-11T10:17:17;96530.22;;;4.35;46.58
67545;BME280;54380;47.770;11.150;2023-02-11T10:19:57;96532.59;;;4.45;46.16
67545;BME280;54380;47.770;11.150;2023-02-11T10:22:29;96523.91;;;4.52;46.52
67545;BME280;54380;47.770;11.150;2023-02-11T10:24:59;96514.69;;;4.65;46.59
67545;BME280;54380;47.770;11.150;2023-02-11T10:27:33;96505.28;;;4.78;46.73
67545;BME280;54380;47.770;11.150;2023-02-11T10:30:06;96501.56;;;4.96;45.84
67545;BME280;54380;47.770;11.150;2023-02-11T10:32:41;96496.66;;;5.16;45.12
67545;BME280;54380;47.770;11.150;2023-02-11T10:35:13;96500.78;;;5.33;44.40
67545;BME280;54380;47.770;11.150;2023-02-11T10:37:40;96495.69;;;5.69;43.76
67545;BME280;54380;47.770;11.150;2023-02-11T10:40:13;96491.16;;;6.23;42.96
67545;BME280;54380;47.770;11.150;2023-02-11T10:42:40;96486.00;;;6.66;43.02
67545;BME280;54380;47.770;11.150;2023-02-11T10:45:18;96481.19;;;7.12;43.14
67545;BME280;54380;47.770;11.150;2023-02-11T10:47:47;96476.41;;;7.44;41.93
67545;BME280;54380;47.770;11.150;2023-02-11T10:50:21;96460.56;;;7.65;40.28
67545;BME280;54380;47.770;11.150;2023-02-11T10:52:48;96459.59;;;7.66;39.49
67545;BME280;54380;47.770;11.150;2023-02-11T10:55:16;96456.66;;;7.55;39.99
67545;BME280;54380;47.770;11.150;2023-02-11T10:57:50;96459.06;;;7.50;40.30
67545;BME280;54380;47.770;11.150;2023-02-11T11:00:34;96448.31;;;7.44;39.89
67545;BME280;54380;47.770;11.150;2023-02-11T11:03:04;96451.09;;;7.36;39.91
67545;BME280;54380;47.770;11.150;2023-02-11T11:05:34;96456.06;;;7.24;39.28
67545;BME280;54380;47.770;11.150;2023-02-11T11:08:03;96456.19;;;7.16;39.87
67545;BME280;54380;47.770;11.150;2023-02-11T11:10:34;96448.00;;;7.04;39.59
67545;BME280;54380;47.770;11.150;2023-02-11T11:13:02;96447.97;;;6.98;40.05
67545;BME280;54380;47.770;11.150;2023-02-11T11:15:29;96439.47;;;6.96;39.92
67545;BME280;54380;47.770;11.150;2023-02-11T11:18:13;96437.22;;;6.93;39.07
67545;BME280;54380;47.770;11.150;2023-02-11T11:20:55;96441.84;;;6.91;38.75
67545;BME280;54380;47.770;11.150;2023-02-11T11:23:24;96436.97;;;6.88;38.00
67545;BME280;54380;47.770;11.150;2023-02-11T11:26:00;96436.34;;;6.86;38.06
67545;BME280;54380;47.770;11.150;2023-02-11T11:28:30;96440.78;;;6.85;38.50
67545;BME280;54380;47.770;11.150;2023-02-11T11:30:59;96432.91;;;6.85;38.09
67545;BME280;54380;47.770;11.150;2023-02-11T11:33:30;96428.47;;;6.86;38.02
67545;BME280;54380;47.770;11.150;2023-02-11T11:36:02;96424.81;;;6.87;38.08
67545;BME280;54380;47.770;11.150;2023-02-11T11:38:31;96421.22;;;6.88;38.50
67545;BME280;54380;47.770;11.150;2023-02-11T11:41:26;96424.69;;;6.95;38.55
67545;BME280;54380;47.770;11.150;2023-02-11T11:43:56;96416.88;;;7.01;38.53
67545;BME280;54380;47.770;11.150;2023-02-11T11:46:25;96419.53;;;7.08;38.33
67545;BME280;54380;47.770;11.150;2023-02-11T11:48:57;96420.81;;;7.12;37.49
67545;BME280;54380;47.770;11.150;2023-02-11T11:51:27;96418.97;;;7.13;37.57
67545;BME280;54380;47.770;11.150;2023-02-11T11:53:58;96426.22;;;7.11;37.32
67545;BME280;54380;47.770;11.150;2023-02-11T11:56:27;96423.81;;;7.09;37.53
67545;BME280;54380;47.770;11.150;2023-02-11T11:58:55;96423.00;;;7.09;38.19
67545;BME280;54380;47.770;11.150;2023-02-11T12:01:30;96423.81;;;7.09;38.00
67545;BME280;54380;47.770;11.150;2023-02-11T12:04:27;96426.06;;;7.12;37.44
67545;BME280;54380;47.770;11.150;2023-02-11T12:07:23;96422.00;;;7.10;37.93
67545;BME280;54380;47.770;11.150;2023-02-11T12:10:03;96422.81;;;7.10;37.84
67545;BME280;54380;47.770;11.150;2023-02-11T12:12:39;96434.94;;;7.11;37.83
67545;BME280;54380;47.770;11.150;2023-02-11T12:15:24;96418.34;;;7.11;37.84
67545;BME280;54380;47.770;11.150;2023-02-11T12:20:55;96411.56;;;7.16;37.49
67545;BME280;54380;47.770;11.150;2023-02-11T12:23:39;96412.16;;;7.18;38.00
67545;BME280;54380;47.770;11.150;2023-02-11T12:26:13;96412.22;;;7.25;37.76
67545;BME280;54380;47.770;11.150;2023-02-11T12:28:51;96414.06;;;7.31;37.71
67545;BME280;54380;47.770;11.150;2023-02-11T12:31:28;96413.50;;;7.36;38.12
67545;BME280;54380;47.770;11.150;2023-02-11T12:36:59;96413.59;;;7.49;38.11
67545;BME280;54380;47.770;11.150;2023-02-11T12:39:36;96407.94;;;7.52;38.01
67545;BME280;54380;47.770;11.150;2023-02-11T12:42:22;96405.75;;;7.56;37.94
67545;BME280;54380;47.770;11.150;2023-02-11T12:45:22;96399.88;;;7.54;38.01
67545;BME280;54380;47.770;11.150;2023-02-11T12:48:04;96399.88;;;7.54;37.75
67545;BME280;54380;47.770;11.150;2023-02-11T12:50:37;96399.88;;;7.54;37.68
67545;BME280;54380;47.770;11.150;2023-02-11T12:53:21;96393.41;;;7.56;37.54
67545;BME280;54380;47.770;11.150;2023-02-11T12:56:02;96391.44;;;7.65;38.33
67545;BME280;54380;47.770;11.150;2023-02-11T12:58:34;96388.84;;;7.72;37.06
67545;BME280;54380;47.770;11.150;2023-02-11T13:01:18;96392.13;;;7.80;37.78
67545;BME280;54380;47.770;11.150;2023-02-11T13:03:50;96384.28;;;7.94;37.46
67545;BME280;54380;47.770;11.150;2023-02-11T13:06:23;96380.91;;;8.13;37.69
67545;BME280;54380;47.770;11.150;2023-02-11T13:08:58;96379.22;;;8.40;37.48
67545;BME280;54380;47.770;11.150;2023-02-11T13:11:28;96385.72;;;8.71;37.97
67545;BME280;54380;47.770;11.150;2023-02-11T13:13:59;96371.94;;;9.02;37.87
67545;BME280;54380;47.770;11.150;2023-02-11T13:16:33;96363.59;;;9.32;36.73
67545;BME280;54380;47.770;11.150;2023-02-11T13:19:06;96370.25;;;9.48;34.89
67545;BME280;54380;47.770;11.150;2023-02-11T13:21:55;96364.38;;;9.59;35.22
67545;BME280;54380;47.770;11.150;2023-02-11T13:24:32;96353.59;;;9.67;34.78
67545;BME280;54380;47.770;11.150;2023-02-11T13:27:07;96353.56;;;9.74;34.69
67545;BME280;54380;47.770;11.150;2023-02-11T13:29:39;96349.69;;;9.76;35.88
67545;BME280;54380;47.770;11.150;2023-02-11T13:32:14;96357.97;;;9.86;35.06
67545;BME280;54380;47.770;11.150;2023-02-11T13:34:56;96345.13;;;10.03;35.33
67545;BME280;54380;47.770;11.150;2023-02-11T13:37:25;96352.56;;;10.13;34.59
67545;BME280;54380;47.770;11.150;2023-02-11T13:39:59;96346.06;;;10.16;34.26
67545;BME280;54380;47.770;11.150;2023-02-11T13:42:28;96343.44;;;10.16;34.30
67545;BME280;54380;47.770;11.150;2023-02-11T13:44:58;96346.25;;;10.21;34.00
67545;BME280;54380;47.770;11.150;2023-02-11T13:47:31;96347.66;;;10.23;34.04
67545;BME280;54380;47.770;11.150;2023-02-11T13:50:06;96350.91;;;10.19;33.46
67545;BME280;54380;47.770;11.150;2023-02-11T13:52:37;96345.25;;;10.22;33.95
67545;BME280;54380;47.770;11.150;2023-02-11T13:55:14;96348.88;;;10.27;33.62
67545;BME280;54380;47.770;11.150;2023-02-11T13:58:15;96341.78;;;10.28;33.33
67545;BME280;54380;47.770;11.150;2023-02-11T14:00:50;96336.47;;;10.21;33.27
67545;BME280;54380;47.770;11.150;2023-02-11T14:03:40;96337.16;;;10.17;32.89
67545;BME280;54380;47.770;11.150;2023-02-11T14:13:29;96336.59;;;10.01;32.82
67545;BME280;54380;47.770;11.150;2023-02-11T14:16:06;96337.22;;;10.03;33.32
67545;BME280;54380;47.770;11.150;2023-02-11T14:18:57;96336.78;;;10.06;34.23
67545;BME280;54380;47.770;11.150;2023-02-11T14:21:35;96330.88;;;10.11;33.22
67545;BME280;54380;47.770;11.150;2023-02-11T14:27:17;96340.84;;;10.09;34.22
67545;BME280;54380;47.770;11.150;2023-02-11T14:29:57;96342.25;;;10.05;34.54
67545;BME280;54380;47.770;11.150;2023-02-11T14:32:40;96337.00;;;10.05;33.54
67545;BME280;54380;47.770;11.150;2023-02-11T14:35:26;96337.16;;;10.10;34.03
67545;BME280;54380;47.770;11.150;2023-02-11T14:38:08;96338.16;;;10.16;34.09
67545;BME280;54380;47.770;11.150;2023-02-11T14:40:48;96341.75;;;10.21;34.01
67545;BME280;54380;47.770;11.150;2023-02-11T14:43:23;96343.78;;;10.26;33.83
67545;BME280;54380;47.770;11.150;2023-02-11T14:45:57;96343.38;;;10.29;34.20
67545;BME280;54380;47.770;11.150;2023-02-11T14:48:37;96339.94;;;10.28;33.82
67545;BME280;54380;47.770;11.150;2023-02-11T14:51:09;96348.88;;;10.27;33.79
67545;BME280;54380;47.770;11.150;2023-02-11T14:53:41;96340.97;;;10.27;33.25
67545;BME280;54380;47.770;11.150;2023-02-11T14:56:16;96340.97;;;10.27;33.77
67545;BME280;54380;47.770;11.150;2023-02-11T14:58:52;96342.16;;;10.25;34.23
67545;BME280;54380;47.770;11.150;2023-02-11T15:01:39;96351.09;;;10.24;34.29
67545;BME280;54380;47.770;11.150;2023-02-11T15:04:30;96347.66;;;10.23;33.82
67545;BME280;54380;47.770;11.150;2023-02-11T15:07:05;96352.13;;;10.23;34.26
67545;BME280;54380;47.770;11.150;2023-02-11T15:09:48;96351.50;;;10.21;33.90
67545;BME280;54380;47.770;11.150;2023-02-11T15:12:27;96354.59;;;10.18;34.03
67545;BME280;54380;47.770;11.150;2023-02-11T15:15:11;96357.66;;;10.08;34.12
67545;BME280;54380;47.770;11.150;2023-02-11T15:17:40;96353.25;;;10.02;34.79
67545;BME280;54380;47.770;11.150;2023-02-11T15:20:19;96358.72;;;10.00;34.80
67545;BME280;54380;47.770;11.150;2023-02-11T15:22:55;96360.97;;;9.97;35.00
67545;BME280;54380;47.770;11.150;2023-02-11T15:25:23;96357.16;;;9.93;35.12
67545;BME280;54380;47.770;11.150;2023-02-11T15:27:56;96351.47;;;9.89;35.12
67545;BME280;54380;47.770;11.150;2023-02-11T15:30:54;96355.34;;;9.86;35.60
67545;BME280;54380;47.770;11.150;2023-02-11T15:33:34;96358.81;;;9.80;35.17
67545;BME280;54380;47.770;11.150;2023-02-11T15:36:14;96367.34;;;9.76;34.08
67545;BME280;54380;47.770;11.150;2023-02-11T15:38:42;96371.00;;;9.68;34.55
67545;BME280;54380;47.770;11.150;2023-02-11T15:41:32;96366.59;;;9.62;34.37
67545;BME280;54380;47.770;11.150;2023-02-11T15:44:00;96366.00;;;9.53;34.73
67545;BME280;54380;47.770;11.150;2023-02-11T15:46:34;96362.75;;;9.44;34.50
67545;BME280;54380;47.770;11.150;2023-02-11T15:49:05;96378.38;;;9.39;34.64
67545;BME280;54380;47.770;11.150;2023-02-11T15:51:37;96376.59;;;9.33;35.07
67545;BME280;54380;47.770;11.150;2023-02-11T15:54:25;96376.38;;;9.21;34.98
67545;BME280;54380;47.770;11.150;2023-02-11T15:57:00;96382.09;;;9.12;35.70
67545;BME280;54380;47.770;11.150;2023-02-11T15:59:31;96386.75;;;9.03;36.05
67545;BME280;54380;47.770;11.150;2023-02-11T16:02:06;96392.59;;;8.92;36.50
67545;BME280;54380;47.770;11.150;2023-02-11T16:04:37;96389.16;;;8.78;36.36
67545;BME280;54380;47.770;11.150;2023-02-11T16:07:36;96390.75;;;8.66;36.64
67545;BME280;54380;47.770;11.150;2023-02-11T16:10:15;96392.16;;;8.55;36.79
67545;BME280;54380;47.770;11.150;2023-02-11T16:12:52;96403.91;;;8.46;37.61
67545;BME280;54380;47.770;11.150;2023-02-11T16:15:41;96396.97;;;8.38;37.54
67545;BME280;54380;47.770;11.150;2023-02-11T16:18:24;96399.97;;;8.28;37.88
67545;BME280;54380;47.770;11.150;2023-02-11T16:21:10;96401.75;;;8.14;37.77
67545;BME280;54380;47.770;11.150;2023-02-11T16:23:39;96401.72;;;8.01;38.49
67545;BME280;54380;47.770;11.150;2023-02-11T16:26:20;96407.31;;;7.85;38.50
67545;BME280;54380;47.770;11.150;2023-02-11T16:28:49;96406.81;;;7.68;39.11
67545;BME280;54380;47.770;11.150;2023-02-11T16:31:18;96413.63;;;7.56;38.96
67545;BME280;54380;47.770;11.150;2023-02-11T16:33:45;96413.75;;;7.47;39.40
67545;BME280;54380;47.770;11.150;2023-02-11T16:36:15;96418.56;;;7.37;39.09
67545;BME280;54380;47.770;11.150;2023-02-11T16:38:51;96413.44;;;7.29;39.85
67545;BME280;54380;47.770;11.150;2023-02-11T16:41:19;96412.78;;;7.20;39.67
67545;BME280;54380;47.770;11.150;2023-02-11T16:43:46;96412.94;;;7.12;39.80
67545;BME280;54380;47.770;11.150;2023-02-11T16:46:14;96417.31;;;7.05;40.08
67545;BME280;54380;47.770;11.150;2023-02-11T16:48:42;96428.16;;;6.95;39.74
67545;BME280;54380;47.770;11.150;2023-02-11T16:51:11;96424.41;;;6.83;40.31
67545;BME280;54380;47.770;11.150;2023-02-11T16:53:42;96423.47;;;6.69;40.10
67545;BME280;54380;47.770;11.150;2023-02-11T16:56:13;96420.34;;;6.59;40.07
67545;BME280;54380;47.770;11.150;2023-02-11T16:58:43;96422.09;;;6.52;40.39
67545;BME280;54380;47.770;11.150;2023-02-11T17:01:10;96428.09;;;6.46;40.59
67545;BME280;54380;47.770;11.150;2023-02-11T17:03:39;96423.94;;;6.36;40.78
67545;BME280;54380;47.770;11.150;2023-02-11T17:06:08;96418.81;;;6.28;41.27
67545;BME280;54380;47.770;11.150;2023-02-11T17:08:37;96437.28;;;6.20;41.26
67545;BME280;54380;47.770;11.150;2023-02-11T17:11:06;96442.25;;;6.15;41.02
67545;BME280;54380;47.770;11.150;2023-02-11T17:13:33;96443.00;;;6.09;41.62
67545;BME280;54380;47.770;11.150;2023-02-11T17:16:01;96448.25;;;6.09;42.20
67545;BME280;54380;47.770;11.150;2023-02-11T17:18:28;96451.25;;;6.06;42.09
67545;BME280;54380;47.770;11.150;2023-02-11T17:20:55;96464.09;;;6.01;42.15
67545;BME280;54380;47.770;11.150;2023-02-11T17:23:23;96473.94;;;5.99;42.53
67545;BME280;54380;47.770;11.150;2023-02-11T17:25:55;96473.28;;;5.97;42.50
67545;BME280;54380;47.770;11.150;2023-02-11T17:28:24;96468.75;;;5.90;42.33
67545;BME280;54380;47.770;11.150;2023-02-11T17:30:51;96471.28;;;5.84;43.00
67545;BME280;54380;47.770;11.150;2023-02-11T17:33:18;96475.97;;;5.73;42.76
67545;BME280;54380;47.770;11.150;2023-02-11T17:35:45;96474.88;;;5.68;43.14
67545;BME280;54380;47.770;11.150;2023-02-11T17:38:12;96480.50;;;5.65;43.12
67545;BME280;54380;47.770;11.150;2023-02-11T17:40:38;96484.81;;;5.58;43.74
67545;BME280;54380;47.770;11.150;2023-02-11T17:43:06;96483.66;;;5.45;43.50
67545;BME280;54380;47.770;11.150;2023-02-11T17:45:39;96479.03;;;5.33;44.09
67545;BME280;54380;47.770;11.150;2023-02-11T17:48:06;96491.91;;;5.19;44.45
67545;BME280;54380;47.770;11.150;2023-02-11T17:50:34;96498.97;;;5.11;44.06
67545;BME280;54380;47.770;11.150;2023-02-11T17:53:01;96508.34;;;5.05;44.27
67545;BME280;54380;47.770;11.150;2023-02-11T17:55:31;96516.09;;;4.98;44.23
67545;BME280;54380;47.770;11.150;2023-02-11T17:57:59;96512.56;;;4.91;43.93
67545;BME280;54380;47.770;11.150;2023-02-11T18:00:27;96522.72;;;4.86;44.75
67545;BME280;54380;47.770;11.150;2023-02-11T18:02:56;96522.78;;;4.78;44.67
67545;BME280;54380;47.770;11.150;2023-02-11T18:05:33;96514.63;;;4.73;44.79
67545;BME280;54380;47.770;11.150;2023-02-11T18:08:00;96520.38;;;4.68;45.06
67545;BME280;54380;47.770;11.150;2023-02-11T18:10:28;96516.31;;;4.66;45.27
67545;BME280;54380;47.770;11.150;2023-02-11T18:12:57;96526.97;;;4.64;45.55
67545;BME280;54380;47.770;11.150;2023-02-11T18:15:25;96528.13;;;4.61;45.42
67545;BME280;54380;47.770;11.150;2023-02-11T18:17:52;96529.63;;;4.56;45.66
67545;BME280;54380;47.770;11.150;2023-02-11T18:20:21;96534.72;;;4.49;45.66
67545;BME280;54380;47.770;11.150;2023-02-11T18:22:48;96537.22;;;4.43;45.88
67545;BME280;54380;47.770;11.150;2023-02-11T18:25:15;96539.53;;;4.37;46.55
67545;BME280;54380;47.770;11.150;2023-02-11T18:27:43;96543.91;;;4.37;46.14
67545;BME280;54380;47.770;11.150;2023-02-11T18:30:13;96537.88;;;4.36;46.35
67545;BME280;54380;47.770;11.150;2023-02-11T18:32:41;96547.69;;;4.34;46.69
67545;BME280;54380;47.770;11.150;2023-02-11T18:35:09;96553.25;;;4.31;46.24
67545;BME280;54380;47.770;11.150;2023-02-11T18:37:42;96548.22;;;4.30;46.49
67545;BME280;54380;47.770;11.150;2023-02-11T18:40:10;96554.75;;;4.26;46.37
67545;BME280;54380;47.770;11.150;2023-02-11T18:42:38;96556.25;;;4.20;46.54
67545;BME280;54380;47.770;11.150;2023-02-11T18:45:06;96551.69;;;4.14;47.42
67545;BME280;54380;47.770;11.150;2023-02-11T18:47:36;96561.03;;;4.08;46.73
67545;BME280;54380;47.770;11.150;2023-02-11T18:50:09;96562.34;;;4.04;47.06
67545;BME280;54380;47.770;11.150;2023-02-11T18:52:38;96567.09;;;4.01;47.60
67545;BME280;54380;47.770;11.150;2023-02-11T18:55:07;96571.81;;;3.97;47.82
67545;BME280;54380;47.770;11.150;2023-02-11T18:57:35;96567.94;;;3.93;47.63
67545;BME280;54380;47.770;11.150;2023-02-11T19:00:03;96559.59;;;3.89;48.14
67545;BME280;54380;47.770;11.150;2023-02-11T19:02:30;96563.03;;;3.90;47.91
67545;BME280;54380;47.770;11.150;2023-02-11T19:04:58;96569.72;;;3.92;47.83
67545;BME280;54380;47.770;11.150;2023-02-11T19:07:26;96579.03;;;3.95;48.45
67545;BME280;54380;47.770;11.150;2023-02-11T19:09:54;96576.69;;;4.00;47.94
67545;BME280;54380;47.770;11.150;2023-02-11T19:12:23;96574.41;;;4.05;48.11
67545;BME280;54380;47.770;11.150;2023-02-11T19:14:54;96574.25;;;4.07;47.88
67545;BME280;54380;47.770;11.150;2023-02-11T19:17:21;96567.72;;;4.11;48.19
67545;BME280;54380;47.770;11.150;2023-02-11T19:19:49;96565.72;;;4.13;48.46
67545;BME280;54380;47.770;11.150;2023-02-11T19:22:16;96573.22;;;4.16;47.82
67545;BME280;54380;47.770;11.150;2023-02-11T19:24:45;96570.81;;;4.14;47.95
67545;BME280;54380;47.770;11.150;2023-02-11T19:27:14;96577.03;;;4.13;48.09
67545;BME280;54380;47.770;11.150;2023-02-11T19:29:42;96579.44;;;4.15;47.77
67545;BME280;54380;47.770;11.150;2023-02-11T19:32:09;96580.78;;;4.11;47.68
67545;BME280;54380;47.770;11.150;2023-02-11T19:34:38;96583.09;;;4.06;48.00
67545;BME280;54380;47.770;11.150;2023-02-11T19:37:08;96578.81;;;4.05;47.80
67545;BME280;54380;47.770;11.150;2023-02-11T19:39:36;96578.81;;;4.05;47.70
67545;BME280;54380;47.770;11.150;2023-02-11T19:42:03;96579.31;;;4.00;47.79
67545;BME280;54380;47.770;11.150;2023-02-11T19:44:30;96564.00;;;3.89;47.98
67545;BME280;54380;47.770;11.150;2023-02-11T19:46:59;96567.81;;;3.70;47.99
67545;BME280;54380;47.770;11.150;2023-02-11T19:49:26;96566.03;;;3.54;48.11
67545;BME280;54380;47.770;11.150;2023-02-11T19:51:55;96556.56;;;3.45;48.45
67545;BME280;54380;47.770;11.150;2023-02-11T19:54:24;96557.22;;;3.39;48.28
67545;BME280;54380;47.770;11.150;2023-02-11T19:56:57;96562.44;;;3.30;48.59
67545;BME280;54380;47.770;11.150;2023-02-11T19:59:26;96569.13;;;3.25;48.99
67545;BME280;54380;47.770;11.150;2023-02-11T20:01:53;96572.88;;;3.22;48.51
67545;BME280;54380;47.770;11.150;2023-02-11T20:04:22;96573.22;;;3.19;48.66
67545;BME280;54380;47.770;11.150;2023-02-11T20:06:50;96567.66;;;3.14;48.84
67545;BME280;54380;47.770;11.150;2023-02-11T20:09:18;96571.41;;;3.12;49.71
67545;BME280;54380;47.770;11.150;2023-02-11T20:11:45;96567.47;;;3.16;49.60
67545;BME280;54380;47.770;11.150;2023-02-11T20:14:13;96565.38;;;3.19;49.58
67545;BME280;54380;47.770;11.150;2023-02-11T20:16:43;96561.78;;;3.20;49.60
67545;BME280;54380;47.770;11.150;2023-02-11T20:19:17;96561.13;;;3.18;49.30
67545;BME280;54380;47.770;11.150;2023-02-11T20:21:53;96562.59;;;3.13;49.91
67545;BME280;54380;47.770;11.150;2023-02-11T20:24:23;96558.84;;;3.07;49.71
67545;BME280;54380;47.770;11.150;2023-02-11T20:26:50;96559.50;;;3.01;50.11
67545;BME280;54380;47.770;11.150;2023-02-11T20:29:24;96560.78;;;2.97;49.86
67545;BME280;54380;47.770;11.150;2023-02-11T20:32:00;96551.34;;;2.96;50.07
67545;BME280;54380;47.770;11.150;2023-02-11T20:34:29;96556.69;;;2.94;50.33
67545;BME280;54380;47.770;11.150;2023-02-11T20:37:06;96560.78;;;2.97;50.51
67545;BME280;54380;47.770;11.150;2023-02-11T20:39:35;96558.50;;;3.02;50.61
67545;BME280;54380;47.770;11.150;2023-02-11T20:42:03;96558.03;;;3.06;50.39
67545;BME280;54380;47.770;11.150;2023-02-11T20:44:31;96556.22;;;3.07;50.38
67545;BME280;54380;47.770;11.150;2023-02-11T20:46:58;96563.25;;;3.06;50.35
67545;BME280;54380;47.770;11.150;2023-02-11T20:49:25;96563.72;;;3.02;50.44
67545;BME280;54380;47.770;11.150;2023-02-11T20:51:54;96561.59;;;2.97;50.61
67545;BME280;54380;47.770;11.150;2023-02-11T20:54:24;96559.16;;;2.88;50.54
67545;BME280;54380;47.770;11.150;2023-02-11T20:56:52;96565.97;;;2.80;50.66
67545;BME280;54380;47.770;11.150;2023-02-11T20:59:22;96562.22;;;2.75;51.02
67545;BME280;54380;47.770;11.150;2023-02-11T21:01:51;96568.56;;;2.72;51.21
67545;BME280;54380;47.770;11.150;2023-02-11T21:04:23;96568.22;;;2.67;51.09
67545;BME280;54380;47.770;11.150;2023-02-11T21:06:53;96581.91;;;2.61;51.21
67545;BME280;54380;47.770;11.150;2023-02-11T21:09:24;96575.50;;;2.55;51.59
67545;BME280;54380;47.770;11.150;2023-02-11T21:11:52;96575.34;;;2.49;51.73
67545;BME280;54380;47.770;11.150;2023-02-11T21:14:21;96570.78;;;2.42;52.08
67545;BME280;54380;47.770;11.150;2023-02-11T21:16:49;96572.38;;;2.35;51.86
67545;BME280;54380;47.770;11.150;2023-02-11T21:19:18;96570.91;;;2.33;52.31
67545;BME280;54380;47.770;11.150;2023-02-11T21:21:46;96578.56;;;2.34;52.40
67545;BME280;54380;47.770;11.150;2023-02-11T21:24:13;96583.47;;;2.37;52.23
67545;BME280;54380;47.770;11.150;2023-02-11T21:26:43;96587.69;;;2.38;52.35
67545;BME280;54380;47.770;11.150;2023-02-11T21:29:11;96589.31;;;2.39;52.11
67545;BME280;54380;47.770;11.150;2023-02-11T21:31:39;96582.97;;;2.42;51.83
67545;BME280;54380;47.770;11.150;2023-02-11T21:34:06;96582.81;;;2.44;52.02
67545;BME280;54380;47.770;11.150;2023-02-11T21:36:33;96585.28;;;2.45;51.93
67545;BME280;54380;47.770;11.150;2023-02-11T21:39:00;96591.81;;;2.49;52.11
67545;BME280;54380;47.770;11.150;2023-02-11T21:41:30;96590.53;;;2.53;52.63
67545;BME280;54380;47.770;11.150;2023-02-11T21:43:59;96590.88;;;2.58;52.45
67545;BME280;54380;47.770;11.150;2023-02-11T21:46:26;96591.03;;;2.65;52.10
67545;BME280;54380;47.770;11.150;2023-02-11T21:48:53;96591.56;;;2.69;52.14
67545;BME280;54380;47.770;11.150;2023-02-11T21:51:24;96592.19;;;2.71;52.48
67545;BME280;54380;47.770;11.150;2023-02-11T21:53:53;96596.28;;;2.73;52.26
67545;BME280;54380;47.770;11.150;2023-02-11T21:56:23;96590.09;;;2.74;52.44
67545;BME280;54380;47.770;11.150;2023-02-11T21:58:54;96596.94;;;2.75;52.71
67545;BME280;54380;47.770;11.150;2023-02-11T22:01:25;96588.78;;;2.78;52.46
67545;BME280;54380;47.770;11.150;2023-02-11T22:03:52;96590.09;;;2.74;52.09
67545;BME280;54380;47.770;11.150;2023-02-11T22:06:20;96594.16;;;2.69;52.07
67545;BME280;54380;47.770;11.150;2023-02-11T22:08:49;96595.25;;;2.58;52.27
67545;BME280;54380;47.770;11.150;2023-02-11T22:11:17;96601.72;;;2.46;52.68
67545;BME280;54380;47.770;11.150;2023-02-11T22:13:44;96599.41;;;2.34;52.70
67545;BME280;54380;47.770;11.150;2023-02-11T22:16:14;96596.59;;;2.28;52.86
67545;BME280;54380;47.770;11.150;2023-02-11T22:18:44;96596.56;;;2.19;53.36
67545;BME280;54380;47.770;11.150;2023-02-11T22:21:13;96599.50;;;2.16;53.47
67545;BME280;54380;47.770;11.150;2023-02-11T22:23:53;96597.34;;;2.12;53.35
67545;BME280;54380;47.770;11.150;2023-02-11T22:26:23;96588.03;;;2.09;53.65
67545;BME280;54380;47.770;11.150;2023-02-11T22:28:51;96587.91;;;2.11;53.51
67545;BME280;54380;47.770;11.150;2023-02-11T22:31:26;96588.41;;;2.14;53.44
67545;BME280;54380;47.770;11.150;2023-02-11T22:34:03;96591.50;;;2.18;53.49
67545;BME280;54380;47.770;11.150;2023-02-11T22:36:33;96586.28;;;2.18;53.77
67545;BME280;54380;47.770;11.150;2023-02-11T22:39:03;96589.88;;;2.17;53.54
67545;BME280;54380;47.770;11.150;2023-02-11T22:41:30;96588.53;;;2.13;53.52
67545;BME280;54380;47.770;11.150;2023-02-11T22:43:57;96587.72;;;2.12;53.36
67545;BME280;54380;47.770;11.150;2023-02-11T22:46:26;96585.31;;;2.11;53.51
67545;BME280;54380;47.770;11.150;2023-02-11T22:48:53;96585.94;;;2.13;53.77
67545;BME280;54380;47.770;11.150;2023-02-11T22:51:24;96600.31;;;2.17;54.06
67545;BME280;54380;47.770;11.150;2023-02-11T22:53:53;96595.25;;;2.24;53.81
67545;BME280;54380;47.770;11.150;2023-02-11T22:56:21;96596.94;;;2.33;53.59
67545;BME280;54380;47.770;11.150;2023-02-11T22:58:51;96588.69;;;2.37;53.27
67545;BME280;54380;47.770;11.150;2023-02-11T23:01:19;96592.22;;;2.36;53.92
67545;BME280;54380;47.770;11.150;2023-02-11T23:03:46;96599.09;;;2.37;54.11
67545;BME280;54380;47.770;11.150;2023-02-11T23:06:14;96598.47;;;2.44;54.10